createdAt,value
2023-02-15T00:00:07.096Z,23.73
2023-02-15T00:02:34.272Z,24.40
2023-02-15T00:05:01.484Z,24.60
2023-02-15T00:07:28.548Z,23.87
2023-02-15T00:09:55.647Z,23.73
2023-02-15T00:12:22.801Z,25.37
2023-02-15T00:14:49.879Z,24.33
2023-02-15T00:17:17.277Z,24.87
2023-02-15T00:19:44.321Z,26.40
2023-02-15T00:22:11.386Z,25.73
2023-02-15T00:24:38.443Z,24.67
2023-02-15T00:27:05.528Z,25.77
2023-02-15T00:29:32.776Z,26.23
2023-02-15T00:31:59.845Z,26.33
2023-02-15T00:34:29.894Z,25.13
2023-02-15T00:36:56.971Z,26.73
2023-02-15T00:39:24.970Z,26.53
2023-02-15T00:41:51.990Z,25.63
2023-02-15T00:44:19.166Z,26.13
2023-02-15T00:46:46.334Z,27.27
2023-02-15T00:49:13.405Z,25.70
2023-02-15T00:51:40.656Z,25.40
2023-02-15T00:54:08.168Z,24.07
2023-02-15T00:56:35.380Z,24.37
2023-02-15T00:59:02.687Z,25.33
2023-02-15T01:01:29.840Z,25.93
2023-02-15T01:03:57.148Z,25.10
2023-02-15T01:06:24.216Z,25.83
2023-02-15T01:08:51.281Z,25.47
2023-02-15T01:11:25.413Z,24.30
2023-02-15T01:13:56.253Z,25.03
2023-02-15T01:16:26.577Z,25.27
2023-02-15T01:18:56.184Z,25.23
2023-02-15T01:21:26.256Z,24.50
2023-02-15T01:23:53.554Z,23.93
2023-02-15T01:26:20.634Z,25.17
2023-02-15T01:28:47.752Z,23.87
2023-02-15T01:31:22.065Z,25.07
2023-02-15T01:33:50.028Z,25.70
2023-02-15T01:36:18.453Z,24.87
2023-02-15T01:38:46.204Z,25.03
2023-02-15T01:41:25.646Z,26.27
2023-02-15T01:44:04.318Z,25.77
2023-02-15T01:46:50.695Z,26.23
2023-02-15T01:49:25.212Z,26.13
2023-02-15T01:51:53.928Z,25.30
2023-02-15T01:54:30.587Z,26.10
2023-02-15T01:57:04.621Z,25.33
2023-02-15T01:59:34.971Z,24.87
2023-02-15T02:02:04.513Z,25.10
2023-02-15T02:04:46.300Z,24.97
2023-02-15T02:07:17.194Z,25.17
2023-02-15T02:09:45.733Z,25.57
2023-02-15T02:12:13.439Z,26.57
2023-02-15T02:14:41.668Z,25.63
2023-02-15T02:17:29.326Z,26.57
2023-02-15T02:20:49.019Z,26.33
2023-02-15T02:24:10.234Z,26.53
2023-02-15T02:26:49.229Z,27.87
2023-02-15T02:29:24.757Z,25.53
2023-02-15T02:32:45.612Z,27.03
2023-02-15T02:35:34.419Z,28.20
2023-02-15T02:38:36.740Z,27.93
2023-02-15T02:41:33.487Z,26.43
2023-02-15T02:44:14.009Z,26.63
2023-02-15T02:46:55.460Z,29.23
2023-02-15T02:49:36.240Z,26.73
2023-02-15T02:52:08.157Z,26.97
2023-02-15T02:54:37.243Z,27.50
2023-02-15T02:57:10.296Z,28.00
2023-02-15T02:59:46.407Z,27.33
2023-02-15T03:02:22.450Z,28.03
2023-02-15T03:04:59.669Z,28.10
2023-02-15T03:07:29.827Z,28.43
2023-02-15T03:10:01.301Z,27.90
2023-02-15T03:12:40.322Z,27.13
2023-02-15T03:15:16.920Z,26.40
2023-02-15T03:17:53.770Z,27.27
2023-02-15T03:20:32.405Z,28.13
2023-02-15T03:23:11.745Z,27.50
2023-02-15T03:25:44.214Z,28.23
2023-02-15T03:28:26.529Z,27.40
2023-02-15T03:30:59.065Z,28.37
2023-02-15T03:33:28.914Z,26.90
2023-02-15T03:36:21.544Z,29.93
2023-02-15T03:39:22.381Z,28.57
2023-02-15T03:42:18.464Z,26.53
2023-02-15T03:45:05.065Z,29.17
2023-02-15T03:47:41.737Z,28.17
2023-02-15T03:50:34.872Z,28.67
2023-02-15T03:53:06.328Z,27.80
2023-02-15T03:55:35.905Z,29.20
2023-02-15T03:58:22.357Z,27.33
2023-02-15T04:01:19.656Z,28.90
2023-02-15T04:03:58.353Z,28.47
2023-02-15T04:06:25.387Z,26.93
2023-02-15T04:09:21.675Z,28.70
2023-02-15T04:11:48.808Z,28.17
2023-02-15T04:14:34.123Z,27.17
2023-02-15T04:17:01.094Z,26.70
2023-02-15T04:19:46.880Z,26.00
2023-02-15T04:22:32.637Z,27.23
2023-02-15T04:25:15.084Z,26.13
2023-02-15T04:27:51.119Z,26.93
2023-02-15T04:30:22.040Z,26.67
2023-02-15T04:32:49.397Z,25.13
2023-02-15T04:35:17.061Z,24.53
2023-02-15T04:37:45.123Z,25.37
2023-02-15T04:40:15.995Z,25.70
2023-02-15T04:42:44.010Z,26.33
2023-02-15T04:45:11.124Z,25.27
2023-02-15T04:47:38.154Z,25.63
2023-02-15T04:50:06.101Z,24.70
2023-02-15T04:52:33.192Z,25.60
2023-02-15T04:55:00.207Z,27.70
2023-02-15T04:57:27.352Z,26.33
2023-02-15T04:59:54.431Z,26.33
2023-02-15T05:02:21.483Z,25.53
2023-02-15T05:04:48.541Z,25.70
2023-02-15T05:07:15.844Z,25.17
2023-02-15T05:09:42.884Z,22.67
2023-02-15T05:12:09.952Z,23.80
2023-02-15T05:14:37.048Z,23.17
2023-02-15T05:17:06.250Z,24.50
2023-02-15T05:19:33.439Z,24.20
2023-02-15T05:22:00.555Z,22.83
2023-02-15T05:24:46.484Z,22.83
2023-02-15T05:27:32.734Z,23.97
2023-02-15T05:30:00.013Z,21.80
2023-02-15T05:32:27.404Z,22.20
2023-02-15T05:34:54.607Z,21.93
2023-02-15T05:37:21.696Z,21.63
2023-02-15T05:39:48.760Z,22.30
2023-02-15T05:42:15.812Z,20.73
2023-02-15T05:44:42.880Z,20.80
2023-02-15T05:47:09.918Z,21.00
2023-02-15T05:49:37.258Z,20.07
2023-02-15T05:52:04.959Z,21.17
2023-02-15T05:54:32.203Z,19.50
2023-02-15T05:56:59.574Z,20.57
2023-02-15T05:59:26.703Z,19.63
2023-02-15T06:01:53.721Z,20.70
2023-02-15T06:04:20.896Z,19.33
2023-02-15T06:06:47.970Z,18.97
2023-02-15T06:09:15.391Z,19.80
2023-02-15T06:11:42.591Z,18.57
2023-02-15T06:14:09.619Z,17.97
2023-02-15T06:16:36.880Z,18.97
2023-02-15T06:19:04.823Z,18.57
2023-02-15T06:21:32.295Z,19.20
2023-02-15T06:23:59.510Z,18.57
2023-02-15T06:26:26.714Z,18.23
2023-02-15T06:28:53.904Z,18.63
2023-02-15T06:31:21.160Z,19.17
2023-02-15T06:33:48.280Z,17.37
2023-02-15T06:36:15.322Z,19.17
2023-02-15T06:38:42.524Z,19.57
2023-02-15T06:41:09.655Z,17.30
2023-02-15T06:43:36.651Z,19.03
2023-02-15T06:46:04.073Z,19.23
2023-02-15T06:48:31.494Z,18.63
2023-02-15T06:50:58.653Z,18.27
2023-02-15T06:53:25.780Z,18.50
2023-02-15T06:55:52.857Z,18.30
2023-02-15T06:58:19.913Z,18.13
2023-02-15T07:00:47.019Z,17.53
2023-02-15T07:03:15.862Z,17.97
2023-02-15T07:05:43.006Z,18.23
2023-02-15T07:08:10.254Z,18.33
2023-02-15T07:10:37.341Z,19.50
2023-02-15T07:13:04.418Z,18.10
2023-02-15T07:15:31.615Z,16.83
2023-02-15T07:18:00.127Z,17.20
2023-02-15T07:20:27.720Z,16.73
2023-02-15T07:22:54.750Z,16.47
2023-02-15T07:25:21.779Z,17.83
2023-02-15T07:27:48.924Z,17.27
2023-02-15T07:30:18.401Z,18.03
2023-02-15T07:33:05.784Z,17.40
2023-02-15T07:35:33.963Z,17.83
2023-02-15T07:38:02.197Z,17.77
2023-02-15T07:40:29.278Z,17.00
2023-02-15T07:43:00.215Z,17.40
2023-02-15T07:45:27.982Z,16.40
2023-02-15T07:47:55.097Z,16.33
2023-02-15T07:50:22.175Z,17.70
2023-02-15T07:52:49.197Z,19.07
2023-02-15T07:55:16.399Z,17.60
2023-02-15T07:57:49.128Z,18.43
2023-02-15T08:00:19.184Z,17.73
2023-02-15T08:03:11.190Z,18.63
2023-02-15T08:05:39.184Z,18.73
2023-02-15T08:08:06.675Z,18.33
2023-02-15T08:10:52.550Z,16.50
2023-02-15T08:13:19.573Z,16.40
2023-02-15T08:15:52.729Z,17.47
2023-02-15T08:18:19.757Z,16.87
2023-02-15T08:20:52.751Z,15.23
2023-02-15T08:23:19.847Z,16.30
2023-02-15T08:25:46.896Z,16.00
2023-02-15T08:28:13.994Z,17.13
2023-02-15T08:30:41.056Z,17.40
2023-02-15T08:33:08.355Z,17.60
2023-02-15T08:35:35.461Z,18.17
2023-02-15T08:38:02.523Z,19.13
2023-02-15T08:40:29.693Z,19.87
2023-02-15T08:42:56.764Z,18.73
2023-02-15T08:45:26.382Z,19.57
2023-02-15T08:47:54.421Z,18.60
2023-02-15T08:50:21.491Z,19.07
2023-02-15T08:52:48.632Z,18.23
2023-02-15T08:55:16.639Z,17.57
2023-02-15T08:57:46.452Z,18.30
2023-02-15T09:00:16.450Z,17.37
2023-02-15T09:02:43.528Z,18.57
2023-02-15T09:05:10.757Z,17.50
2023-02-15T09:07:37.798Z,18.07
2023-02-15T09:10:05.534Z,17.87
2023-02-15T09:12:32.556Z,18.77
2023-02-15T09:14:59.667Z,17.57
2023-02-15T09:17:26.693Z,19.30
2023-02-15T09:19:53.760Z,19.13
2023-02-15T09:22:21.237Z,18.93
2023-02-15T09:24:48.270Z,19.13
2023-02-15T09:27:15.497Z,18.50
2023-02-15T09:29:42.547Z,20.77
2023-02-15T09:32:09.562Z,19.37
2023-02-15T09:34:36.638Z,19.50
2023-02-15T09:37:03.883Z,20.17
2023-02-15T09:39:31.097Z,19.00
2023-02-15T09:42:44.663Z,17.43
2023-02-15T09:45:49.017Z,18.60
2023-02-15T09:48:50.203Z,18.40
2023-02-15T09:51:38.688Z,16.93
2023-02-15T09:54:26.202Z,16.07
2023-02-15T09:57:22.233Z,16.77
2023-02-15T10:00:10.902Z,16.07
2023-02-15T10:02:54.434Z,16.77
2023-02-15T10:05:52.095Z,15.60
2023-02-15T10:09:08.734Z,16.10
2023-02-15T10:11:42.053Z,16.27
2023-02-15T10:14:46.538Z,16.23
2023-02-15T10:17:37.862Z,15.70
2023-02-15T10:20:31.999Z,16.17
2023-02-15T10:23:10.712Z,16.03
2023-02-15T10:26:12.344Z,16.33
2023-02-15T10:28:52.325Z,17.20
2023-02-15T10:31:51.981Z,16.23
2023-02-15T10:34:40.857Z,17.53
2023-02-15T10:37:31.100Z,18.20
2023-02-15T10:40:08.822Z,16.97
2023-02-15T10:42:57.915Z,15.90
2023-02-15T10:45:55.794Z,15.87
2023-02-15T10:48:31.514Z,16.47
2023-02-15T10:51:03.313Z,16.93
2023-02-15T10:53:39.494Z,16.60
2023-02-15T10:56:37.355Z,17.63
2023-02-15T10:59:32.277Z,18.40
2023-02-15T11:02:18.912Z,17.07
2023-02-15T11:04:54.148Z,17.43
2023-02-15T11:07:46.084Z,17.97
2023-02-15T11:11:03.013Z,16.47
2023-02-15T11:13:38.872Z,15.63
2023-02-15T11:16:22.527Z,16.00
2023-02-15T11:19:20.463Z,15.33
2023-02-15T11:21:54.045Z,15.47
2023-02-15T11:24:22.704Z,15.63
2023-02-15T11:27:01.930Z,15.27
2023-02-15T11:29:54.355Z,13.53
2023-02-15T11:32:36.872Z,13.80
2023-02-15T11:35:12.937Z,16.80
2023-02-15T11:37:48.030Z,17.87
2023-02-15T11:40:29.443Z,16.80
2023-02-15T11:43:14.634Z,15.67
2023-02-15T11:45:45.773Z,14.63
2023-02-15T11:48:16.995Z,16.07
2023-02-15T11:50:45.988Z,16.53
2023-02-15T11:53:22.270Z,17.00
2023-02-15T11:55:52.072Z,16.57
2023-02-15T11:58:53.882Z,14.63
2023-02-15T12:01:34.013Z,15.87
2023-02-15T12:04:34.020Z,16.40
2023-02-15T12:07:23.582Z,15.40
2023-02-15T12:10:05.228Z,17.47
2023-02-15T12:12:36.140Z,16.70
2023-02-15T12:15:07.869Z,17.57
2023-02-15T12:17:56.068Z,16.57
2023-02-15T12:20:31.982Z,16.80
2023-02-15T12:23:12.056Z,17.50
2023-02-15T12:25:59.191Z,18.17
2023-02-15T12:28:39.683Z,16.63
2023-02-15T12:31:47.200Z,19.33
2023-02-15T12:34:24.514Z,17.87
2023-02-15T12:36:59.180Z,18.73
2023-02-15T12:39:32.571Z,19.93
2023-02-15T12:42:22.818Z,18.53
2023-02-15T12:45:20.204Z,18.17
2023-02-15T12:47:47.333Z,19.50
2023-02-15T12:50:34.586Z,20.80
2023-02-15T12:53:35.860Z,19.87
2023-02-15T12:56:07.089Z,20.10
2023-02-15T12:58:42.227Z,20.67
2023-02-15T13:01:26.706Z,20.40
2023-02-15T13:03:56.696Z,20.20
2023-02-15T13:06:24.039Z,21.40
2023-02-15T13:08:58.503Z,21.40
2023-02-15T13:11:38.881Z,22.17
2023-02-15T13:14:32.534Z,19.97
2023-02-15T13:17:04.100Z,20.27
2023-02-15T13:19:57.812Z,21.00
2023-02-15T13:22:43.321Z,21.40
2023-02-15T13:25:22.260Z,21.47
2023-02-15T13:27:58.560Z,21.10
2023-02-15T13:30:43.253Z,22.03
2023-02-15T13:33:29.668Z,22.93
2023-02-15T13:36:42.983Z,24.00
2023-02-15T13:39:34.618Z,22.23
2023-02-15T13:42:40.906Z,20.93
2023-02-15T13:45:39.617Z,21.40
2023-02-15T13:48:53.013Z,20.53
2023-02-15T13:51:40.114Z,19.70
2023-02-15T13:54:44.886Z,21.77
2023-02-15T13:57:36.231Z,22.43
2023-02-15T14:00:36.329Z,23.73
2023-02-15T14:03:18.258Z,23.17
2023-02-15T14:06:00.505Z,23.00
2023-02-15T14:09:07.611Z,23.93
2023-02-15T14:11:42.358Z,21.80
2023-02-15T14:14:25.058Z,24.07
2023-02-15T14:17:23.361Z,23.87
2023-02-15T14:20:03.086Z,23.60
2023-02-15T14:22:39.921Z,24.40
2023-02-15T14:25:41.479Z,23.43
2023-02-15T14:28:52.078Z,24.27
2023-02-15T14:31:24.497Z,23.70
2023-02-15T14:33:59.189Z,24.07
2023-02-15T14:36:31.231Z,24.10
2023-02-15T14:39:51.266Z,24.10
2023-02-15T14:42:42.074Z,23.93
2023-02-15T14:45:43.973Z,23.63
2023-02-15T14:48:25.298Z,23.43
2023-02-15T14:50:52.429Z,26.17
2023-02-15T14:53:32.057Z,26.67
2023-02-15T14:56:20.509Z,25.73
2023-02-15T14:58:53.630Z,28.00
2023-02-15T15:01:36.642Z,27.67
2023-02-15T15:04:15.498Z,27.97
2023-02-15T15:06:45.031Z,26.47
2023-02-15T15:09:29.289Z,27.27
2023-02-15T15:12:38.862Z,29.63
2023-02-15T15:15:07.837Z,26.70
2023-02-15T15:17:35.059Z,29.53
2023-02-15T15:20:08.400Z,28.20
2023-02-15T15:22:37.755Z,27.00
2023-02-15T15:25:34.785Z,27.63
2023-02-15T15:28:01.898Z,26.30
2023-02-15T15:30:31.615Z,27.37
2023-02-15T15:32:58.571Z,25.73
2023-02-15T15:35:53.781Z,27.30
2023-02-15T15:39:06.960Z,25.20
2023-02-15T15:42:02.916Z,27.13
2023-02-15T15:44:54.017Z,32.93
2023-02-15T15:48:07.152Z,30.07
2023-02-15T15:50:35.575Z,28.63
2023-02-15T15:53:04.390Z,28.33
2023-02-15T15:55:34.634Z,28.03
2023-02-15T15:58:07.182Z,24.20
2023-02-15T16:00:39.308Z,24.20
2023-02-15T16:03:07.046Z,22.37
2023-02-15T16:05:39.339Z,21.13
2023-02-15T16:08:07.054Z,20.27
2023-02-15T16:10:36.928Z,21.37
2023-02-15T16:13:05.795Z,22.43
2023-02-15T16:15:50.677Z,21.97
2023-02-15T16:18:23.054Z,21.17
2023-02-15T16:21:00.160Z,20.67
2023-02-15T16:23:36.384Z,21.50
2023-02-15T16:27:00.122Z,21.47
2023-02-15T16:29:32.549Z,22.37
2023-02-15T16:32:21.441Z,23.47
2023-02-15T16:35:03.833Z,23.43
2023-02-15T16:37:35.796Z,23.33
2023-02-15T16:40:03.527Z,23.50
2023-02-15T16:42:30.530Z,22.80
2023-02-15T16:45:10.148Z,23.97
2023-02-15T16:47:44.232Z,24.67
2023-02-15T16:50:38.246Z,24.63
2023-02-15T16:53:17.281Z,25.83
2023-02-15T16:55:48.963Z,23.87
2023-02-15T16:58:18.734Z,23.37
2023-02-15T17:00:46.675Z,24.53
2023-02-15T17:03:13.586Z,24.27
2023-02-15T17:05:51.155Z,22.47
2023-02-15T17:08:35.342Z,22.97
2023-02-15T17:11:22.442Z,22.10
2023-02-15T17:14:09.756Z,21.97
2023-02-15T17:17:01.887Z,21.30
2023-02-15T17:19:36.109Z,22.20
2023-02-15T17:22:08.132Z,21.47
2023-02-15T17:24:43.061Z,19.03
2023-02-15T17:27:25.770Z,18.17
2023-02-15T17:29:59.974Z,19.70
2023-02-15T17:32:31.342Z,19.23
2023-02-15T17:35:09.181Z,22.13
2023-02-15T17:37:38.858Z,21.00
2023-02-15T17:40:28.318Z,20.67
2023-02-15T17:42:55.554Z,21.47
2023-02-15T17:45:27.339Z,22.23
2023-02-15T17:47:54.705Z,21.73
2023-02-15T17:50:26.358Z,23.40
2023-02-15T17:52:56.464Z,22.83
2023-02-15T17:55:41.240Z,22.90
2023-02-15T17:58:19.494Z,23.57
2023-02-15T18:01:11.898Z,22.33
2023-02-15T18:04:04.761Z,22.97
2023-02-15T18:06:51.777Z,23.20
2023-02-15T18:09:40.784Z,24.13
2023-02-15T18:12:22.255Z,26.13
2023-02-15T18:14:50.859Z,24.33
2023-02-15T18:17:18.722Z,25.43
2023-02-15T18:19:47.233Z,23.53
2023-02-15T18:22:19.102Z,23.27
2023-02-15T18:24:48.782Z,22.23
2023-02-15T18:27:16.919Z,23.23
2023-02-15T18:29:44.086Z,23.10
2023-02-15T18:32:20.033Z,22.40
2023-02-15T18:34:49.518Z,22.33
2023-02-15T18:37:21.098Z,23.23
2023-02-15T18:39:57.428Z,23.77
2023-02-15T18:42:35.240Z,21.90
2023-02-15T18:45:18.706Z,23.07
2023-02-15T18:47:47.602Z,24.20
2023-02-15T18:50:17.001Z,23.57
2023-02-15T18:52:47.237Z,22.83
2023-02-15T18:55:23.095Z,24.07
2023-02-15T18:57:54.041Z,24.57
2023-02-15T19:00:33.888Z,24.13
2023-02-15T19:03:02.602Z,25.27
2023-02-15T19:05:31.959Z,23.90
2023-02-15T19:08:01.827Z,25.97
2023-02-15T19:10:31.464Z,26.10
2023-02-15T19:12:58.984Z,24.63
2023-02-15T19:15:30.584Z,25.17
2023-02-15T19:17:57.788Z,25.87
2023-02-15T19:20:45.582Z,27.47
2023-02-15T19:23:20.337Z,26.27
2023-02-15T19:25:49.741Z,27.17
2023-02-15T19:28:32.494Z,26.23
2023-02-15T19:30:59.769Z,27.80
2023-02-15T19:33:27.042Z,27.47
2023-02-15T19:35:57.647Z,25.87
2023-02-15T19:38:30.503Z,28.53
2023-02-15T19:41:07.535Z,27.70
2023-02-15T19:43:35.900Z,27.77
2023-02-15T19:46:03.335Z,26.53
2023-02-15T19:48:30.508Z,26.40
2023-02-15T19:50:58.977Z,30.20
2023-02-15T19:53:28.605Z,27.27
2023-02-15T19:55:55.778Z,28.27
2023-02-15T19:58:23.265Z,26.77
2023-02-15T20:00:51.770Z,29.47
2023-02-15T20:03:18.815Z,28.77
2023-02-15T20:05:46.970Z,28.23
2023-02-15T20:08:20.863Z,27.80
2023-02-15T20:10:48.650Z,28.33
2023-02-15T20:13:20.281Z,27.27
2023-02-15T20:15:49.157Z,27.40
2023-02-15T20:18:16.236Z,27.83
2023-02-15T20:20:49.445Z,28.83
2023-02-15T20:23:31.096Z,27.50
2023-02-15T20:26:01.091Z,28.23
2023-02-15T20:28:31.887Z,29.13
2023-02-15T20:30:59.638Z,29.17
2023-02-15T20:33:26.834Z,28.67
2023-02-15T20:35:54.044Z,29.33
2023-02-15T20:38:29.003Z,28.03
2023-02-15T20:41:17.658Z,28.10
2023-02-15T20:43:44.919Z,28.50
2023-02-15T20:46:11.990Z,28.40
2023-02-15T20:48:39.128Z,28.00
2023-02-15T20:51:14.482Z,28.03
2023-02-15T20:53:41.510Z,28.40
2023-02-15T20:56:22.327Z,28.70
2023-02-15T20:58:50.657Z,28.03
2023-02-15T21:01:21.494Z,29.33
2023-02-15T21:03:48.752Z,28.53
2023-02-15T21:06:19.172Z,28.50
2023-02-15T21:08:46.243Z,28.90
2023-02-15T21:11:23.819Z,28.87
2023-02-15T21:13:51.384Z,27.47
2023-02-15T21:16:18.574Z,28.63
2023-02-15T21:18:45.693Z,29.53
2023-02-15T21:21:23.593Z,29.93
2023-02-15T21:23:52.418Z,27.40
2023-02-15T21:26:22.805Z,29.37
2023-02-15T21:28:50.579Z,28.23
2023-02-15T21:31:25.187Z,28.57
2023-02-15T21:33:52.769Z,29.33
2023-02-15T21:36:24.206Z,28.50
2023-02-15T21:38:53.767Z,27.93
2023-02-15T21:41:42.814Z,28.80
2023-02-15T21:44:41.040Z,27.80
2023-02-15T21:47:44.666Z,28.50
2023-02-15T21:50:37.855Z,28.83
2023-02-15T21:53:07.307Z,30.00
2023-02-15T21:55:34.407Z,29.07
2023-02-15T21:58:02.451Z,30.07
2023-02-15T22:00:30.686Z,29.40
2023-02-15T22:03:00.960Z,28.77
2023-02-15T22:05:33.763Z,29.70
2023-02-15T22:08:01.232Z,28.90
2023-02-15T22:10:31.858Z,26.50
2023-02-15T22:13:02.925Z,29.80
2023-02-15T22:15:37.588Z,27.50
2023-02-15T22:18:05.977Z,28.73
2023-02-15T22:20:33.209Z,29.03
2023-02-15T22:23:00.253Z,29.50
2023-02-15T22:25:27.720Z,29.77
2023-02-15T22:27:55.701Z,28.30
2023-02-15T22:30:27.461Z,28.77
2023-02-15T22:32:56.998Z,30.50
2023-02-15T22:35:31.227Z,28.23
2023-02-15T22:37:59.018Z,27.67
2023-02-15T22:40:33.137Z,27.80
2023-02-15T22:43:03.139Z,25.97
2023-02-15T22:45:32.112Z,27.83
2023-02-15T22:48:00.701Z,29.93
2023-02-15T22:50:33.081Z,27.83
2023-02-15T22:53:04.030Z,27.47
2023-02-15T22:55:36.393Z,27.17
2023-02-15T22:58:04.311Z,27.47
2023-02-15T23:00:38.399Z,28.30
2023-02-15T23:03:17.014Z,27.67
2023-02-15T23:05:45.268Z,28.27
2023-02-15T23:08:12.652Z,28.10
2023-02-15T23:10:41.303Z,28.80
2023-02-15T23:13:31.272Z,28.10
2023-02-15T23:16:01.885Z,28.07
2023-02-15T23:18:31.539Z,27.57
2023-02-15T23:21:04.409Z,28.07
2023-02-15T23:23:38.193Z,28.47
2023-02-15T23:26:18.076Z,30.50
2023-02-15T23:28:46.433Z,29.50
2023-02-15T23:31:23.598Z,29.77
2023-02-15T23:33:51.636Z,30.20
2023-02-15T23:36:38.116Z,33.33
2023-02-15T23:39:37.853Z,29.53
2023-02-15T23:42:27.948Z,31.03
2023-02-15T23:44:55.422Z,32.90
2023-02-15T23:47:53.385Z,32.67
2023-02-15T23:50:27.196Z,33.40
2023-02-15T23:52:55.541Z,31.70
2023-02-15T23:55:25.240Z,33.70
2023-02-15T23:57:53.423Z,34.30
